Valle Grande, Bolivia
Current Conditions -  °F | °C
As of 5:00 PM on Tuesday 27 Jan 2015 (Local Time) from SLET Reporting Station
Broken Clouds Broken Clouds  
Wind Chill: 82°   Ceiling: 20000
Heat Index: 87°   Visibility: 6mi
Dew Point: 72°   Wind: 17mph
Humidity: 70%   Direction: 340°NNW
Pressure: 29.68"   Gusts: 29mph
Location:  18.49°S, 64.11°W
Report Text: SLET 272100Z 34015G25KT 9999 FEW015 SCT020 BKN200 28/22 Q1005
Loading
Personal Weather Stations






























Interactive Weather Map New forecast layout! Learn more

10-Day Weather Forecast

Advertisements
Track Severe Weather on mobile